createdAt,value
2017-10-19T00:01:22.719Z,99302.11
2017-10-19T00:03:49.113Z,99296.28
2017-10-19T00:06:15.590Z,99299.66
2017-10-19T00:08:42.024Z,99299.64
2017-10-19T00:11:08.503Z,99298.55
2017-10-19T00:13:35.028Z,99298.81
2017-10-19T00:16:01.511Z,99294.23
2017-10-19T00:18:28.685Z,99297.53
2017-10-19T00:20:55.075Z,99289.63
2017-10-19T00:23:21.539Z,99291.25
2017-10-19T00:25:47.989Z,99287.91
2017-10-19T00:28:14.529Z,99279.27
2017-10-19T00:30:40.961Z,99283.67
2017-10-19T00:33:07.347Z,99280.58
2017-10-19T00:35:34.554Z,99271.77
2017-10-19T00:38:00.983Z,99279.28
2017-10-19T00:40:27.417Z,99277.56
2017-10-19T00:42:54.670Z,99273.02
2017-10-19T00:45:21.114Z,99273.02
2017-10-19T00:47:47.491Z,99268.09
2017-10-19T00:50:13.956Z,99265.48
2017-10-19T00:52:40.398Z,99268.47
2017-10-19T00:55:06.842Z,99276.16
2017-10-19T00:57:33.241Z,99268.18
2017-10-19T00:59:59.613Z,99267.28
2017-10-19T01:02:26.048Z,99264.55
2017-10-19T01:04:52.482Z,99263.63
2017-10-19T01:07:18.919Z,99264.12
2017-10-19T01:09:45.355Z,99267.05
2017-10-19T01:12:11.788Z,99263.64
2017-10-19T01:14:38.222Z,99265.20
2017-10-19T01:17:04.656Z,99252.33
2017-10-19T01:19:31.093Z,99264.78
2017-10-19T01:21:57.525Z,99253.56
2017-10-19T01:24:23.960Z,99266.02
2017-10-19T01:26:50.395Z,99266.34
2017-10-19T01:29:16.932Z,99266.46
2017-10-19T01:31:43.367Z,99268.45
2017-10-19T01:34:09.746Z,99266.53
2017-10-19T01:36:36.214Z,99264.58
2017-10-19T01:39:02.658Z,99265.27
2017-10-19T01:41:29.107Z,99260.09
2017-10-19T01:43:55.541Z,99257.06
2017-10-19T01:46:21.927Z,99263.23
2017-10-19T01:48:48.415Z,99259.73
2017-10-19T01:51:14.899Z,99261.97
2017-10-19T01:53:41.385Z,99259.80
2017-10-19T01:56:07.818Z,99260.49
2017-10-19T01:58:34.253Z,99261.64
2017-10-19T02:01:00.688Z,99252.13
2017-10-19T02:03:27.076Z,99255.55
2017-10-19T02:05:53.424Z,99253.22
2017-10-19T02:08:19.788Z,99252.03
2017-10-19T02:10:46.224Z,99246.16
2017-10-19T02:13:12.603Z,99248.22
2017-10-19T02:15:39.082Z,99255.08
2017-10-19T02:18:05.546Z,99251.92
2017-10-19T02:20:31.961Z,99256.44
2017-10-19T02:22:58.405Z,99253.80
2017-10-19T02:25:24.830Z,99255.38
2017-10-19T02:27:51.267Z,99252.23
2017-10-19T02:30:17.701Z,99257.25
2017-10-19T02:32:44.136Z,99241.27
2017-10-19T02:35:10.534Z,99246.87
2017-10-19T02:37:36.902Z,99249.70
2017-10-19T02:40:03.339Z,99243.22
2017-10-19T02:42:29.776Z,99250.21
2017-10-19T02:44:56.207Z,99255.03
2017-10-19T02:47:22.643Z,99251.84
2017-10-19T02:49:49.078Z,99258.05
2017-10-19T02:52:15.517Z,99264.79
2017-10-19T02:54:41.948Z,99255.28
2017-10-19T02:57:08.468Z,99257.49
2017-10-19T02:59:34.910Z,99259.05
2017-10-19T03:02:01.355Z,99251.59
2017-10-19T03:04:27.788Z,99255.67
2017-10-19T03:06:54.250Z,99258.49
2017-10-19T03:09:20.658Z,99260.25
2017-10-19T03:11:47.093Z,99261.50
2017-10-19T03:14:13.513Z,99260.16
2017-10-19T03:16:39.956Z,99255.44
2017-10-19T03:19:06.416Z,99255.63
2017-10-19T03:21:32.832Z,99263.27
2017-10-19T03:23:59.358Z,99256.98
2017-10-19T03:26:25.823Z,99264.75
2017-10-19T03:28:52.238Z,99261.45
2017-10-19T03:31:18.675Z,99263.73
2017-10-19T03:33:45.059Z,99256.55
2017-10-19T03:36:11.548Z,99249.77
2017-10-19T03:38:37.979Z,99248.66
2017-10-19T03:41:04.373Z,99249.80
2017-10-19T03:43:30.851Z,99246.45
2017-10-19T03:45:57.284Z,99247.35
2017-10-19T03:48:23.717Z,99232.02
2017-10-19T03:50:50.153Z,99248.06
2017-10-19T03:53:16.588Z,99252.55
2017-10-19T03:55:43.081Z,99244.05
2017-10-19T03:58:09.513Z,99249.20
2017-10-19T04:00:35.971Z,99251.04
2017-10-19T04:03:02.326Z,99251.46
2017-10-19T04:05:28.762Z,99247.70
2017-10-19T04:07:55.199Z,99246.73
2017-10-19T04:10:21.631Z,99249.16
2017-10-19T04:12:48.168Z,99246.61
2017-10-19T04:15:14.622Z,99242.84
2017-10-19T04:17:41.041Z,99245.50
2017-10-19T04:20:07.474Z,99245.56
2017-10-19T04:22:33.907Z,99241.33
2017-10-19T04:25:00.344Z,99245.91
2017-10-19T04:27:26.779Z,99241.27
2017-10-19T04:29:53.212Z,99240.91
2017-10-19T04:32:20.363Z,99239.44
2017-10-19T04:34:46.802Z,99237.97
2017-10-19T04:37:13.237Z,99238.86
2017-10-19T04:39:39.668Z,99240.49
2017-10-19T04:42:06.102Z,99236.74
2017-10-19T04:44:32.538Z,99237.62
2017-10-19T04:46:58.973Z,99239.03
2017-10-19T04:49:25.408Z,99236.80
2017-10-19T04:51:51.945Z,99238.20
2017-10-19T04:54:18.379Z,99244.34
2017-10-19T04:56:44.824Z,99244.14
2017-10-19T04:59:11.249Z,99243.08
2017-10-19T05:01:37.684Z,99245.45
2017-10-19T05:04:04.119Z,99249.84
2017-10-19T05:06:30.553Z,99249.38
2017-10-19T05:08:57.090Z,99253.16
2017-10-19T05:11:23.525Z,99249.22
2017-10-19T05:13:49.960Z,99253.97
2017-10-19T05:16:16.346Z,99254.20
2017-10-19T05:18:42.827Z,99256.09
2017-10-19T05:21:09.269Z,99254.73
2017-10-19T05:23:35.827Z,99261.38
2017-10-19T05:26:02.344Z,99258.14
2017-10-19T05:28:28.774Z,99256.95
2017-10-19T05:30:55.208Z,99255.56
2017-10-19T05:33:21.746Z,99259.36
2017-10-19T05:35:48.182Z,99264.98
2017-10-19T05:38:14.616Z,99273.53
2017-10-19T05:40:41.051Z,99270.55
2017-10-19T05:43:07.485Z,99278.69
2017-10-19T05:45:33.920Z,99277.02
2017-10-19T05:48:00.356Z,99274.20
2017-10-19T05:50:26.811Z,99278.72
2017-10-19T05:52:53.224Z,99268.95
2017-10-19T05:55:19.612Z,99277.33
2017-10-19T05:57:46.084Z,99281.00
2017-10-19T06:00:12.835Z,99283.11
2017-10-19T06:02:39.444Z,99287.70
2017-10-19T06:05:05.915Z,99285.06
2017-10-19T06:07:32.860Z,99287.83
2017-10-19T06:09:59.292Z,99287.52
2017-10-19T06:12:25.830Z,99288.91
2017-10-19T06:14:52.268Z,99297.23
2017-10-19T06:17:18.722Z,99293.71
2017-10-19T06:19:45.087Z,99296.20
2017-10-19T06:22:11.525Z,99292.93
2017-10-19T06:24:38.620Z,99286.94
2017-10-19T06:27:05.261Z,99282.86
2017-10-19T06:29:31.797Z,99291.04
2017-10-19T06:31:58.513Z,99291.30
2017-10-19T06:34:25.047Z,99287.27
2017-10-19T06:36:52.226Z,99288.02
2017-10-19T06:39:18.766Z,99290.81
2017-10-19T06:41:45.703Z,99287.05
2017-10-19T06:44:12.146Z,99296.25
2017-10-19T06:46:38.536Z,99297.68
2017-10-19T06:49:05.119Z,99276.53
2017-10-19T06:51:31.654Z,99298.67
2017-10-19T06:53:58.197Z,99300.84
2017-10-19T06:56:24.937Z,99293.59
2017-10-19T06:58:51.367Z,99273.09
2017-10-19T07:01:17.802Z,99286.45
2017-10-19T07:03:44.341Z,99286.88
2017-10-19T07:06:10.774Z,99282.90
2017-10-19T07:08:37.163Z,99274.77
2017-10-19T07:11:03.850Z,99282.59
2017-10-19T07:13:30.386Z,99281.48
2017-10-19T07:15:56.822Z,99282.49
2017-10-19T07:18:23.841Z,99276.43
2017-10-19T07:20:50.249Z,99273.05
2017-10-19T07:23:17.252Z,99269.20
2017-10-19T07:25:44.203Z,99273.86
2017-10-19T07:28:10.633Z,99272.05
2017-10-19T07:30:37.124Z,99274.95
2017-10-19T07:33:03.612Z,99272.17
2017-10-19T07:35:30.245Z,99273.21
2017-10-19T07:37:56.601Z,99276.88
2017-10-19T07:40:23.121Z,99272.36
2017-10-19T07:42:49.654Z,99271.42
2017-10-19T07:45:16.119Z,99266.66
2017-10-19T07:47:42.624Z,99269.35
2017-10-19T07:50:09.060Z,99275.91
2017-10-19T07:52:35.800Z,99267.93
2017-10-19T07:55:02.237Z,99265.03
2017-10-19T07:57:28.774Z,99260.00
2017-10-19T07:59:55.413Z,99266.47
2017-10-19T08:02:21.949Z,99263.38
2017-10-19T08:04:48.355Z,99267.90
2017-10-19T08:07:14.852Z,99271.66
2017-10-19T08:09:41.563Z,99267.64
2017-10-19T08:12:08.103Z,99266.16
2017-10-19T08:14:34.530Z,99267.42
2017-10-19T08:17:00.965Z,99267.14
2017-10-19T08:19:27.504Z,99267.97
2017-10-19T08:21:53.936Z,99262.88
2017-10-19T08:24:20.328Z,99263.97
2017-10-19T08:26:46.808Z,99262.02
2017-10-19T08:29:13.242Z,99260.16
2017-10-19T08:31:39.705Z,99257.53
2017-10-19T08:34:06.324Z,99254.61
2017-10-19T08:36:32.672Z,99254.22
2017-10-19T08:38:59.084Z,99255.23
2017-10-19T08:41:25.682Z,99250.11
2017-10-19T08:43:52.100Z,99252.41
2017-10-19T08:46:18.490Z,99247.26
2017-10-19T08:48:45.539Z,99228.08
2017-10-19T08:51:11.973Z,99246.86
2017-10-19T08:53:38.641Z,99242.94
2017-10-19T08:56:05.123Z,99246.36
2017-10-19T08:58:32.247Z,99242.14
2017-10-19T09:00:58.710Z,99244.34
2017-10-19T09:03:25.111Z,99251.19
2017-10-19T09:05:51.624Z,99245.03
2017-10-19T09:10:57.975Z,99241.94
2017-10-19T09:13:24.839Z,99234.43
2017-10-19T09:15:51.273Z,99246.16
2017-10-19T09:18:17.738Z,99244.72
2017-10-19T09:20:44.316Z,99234.47
2017-10-19T09:23:11.102Z,99241.91
2017-10-19T09:25:37.496Z,99233.47
2017-10-19T09:28:03.950Z,99230.35
2017-10-19T09:30:30.633Z,99226.28
2017-10-19T09:32:57.107Z,99216.02
2017-10-19T09:35:23.682Z,99214.52
2017-10-19T09:37:50.313Z,99206.48
2017-10-19T09:40:16.749Z,99205.14
2017-10-19T09:42:43.285Z,99206.72
2017-10-19T09:45:10.543Z,99202.82
2017-10-19T09:47:36.959Z,99195.85
2017-10-19T09:50:04.340Z,99198.39
2017-10-19T09:52:30.697Z,99193.06
2017-10-19T09:54:57.311Z,99183.11
2017-10-19T09:57:24.761Z,99183.47
2017-10-19T09:59:51.135Z,99176.17
2017-10-19T10:02:17.492Z,99177.37
2017-10-19T10:04:44.066Z,99171.95
2017-10-19T10:07:10.524Z,99168.64
2017-10-19T10:09:37.124Z,99170.77
2017-10-19T10:12:03.809Z,99163.97
2017-10-19T10:14:30.837Z,99158.42
2017-10-19T10:16:57.246Z,99158.19
2017-10-19T10:19:23.699Z,99160.83
2017-10-19T10:21:50.133Z,99154.39
2017-10-19T10:24:16.875Z,99147.89
2017-10-19T10:26:43.318Z,99149.27
2017-10-19T10:29:09.754Z,99143.83
2017-10-19T10:31:36.190Z,99138.73
2017-10-19T10:34:02.656Z,99140.95
2017-10-19T10:36:28.991Z,99144.70
2017-10-19T10:38:55.492Z,99136.60
2017-10-19T10:41:21.896Z,99137.98
2017-10-19T10:43:48.661Z,99128.06
2017-10-19T10:46:15.340Z,99130.23
2017-10-19T10:48:41.739Z,99130.75
2017-10-19T10:51:08.174Z,99125.30
2017-10-19T10:53:34.819Z,99108.38
2017-10-19T10:56:01.244Z,99108.38
2017-10-19T10:58:27.688Z,99120.22
2017-10-19T11:00:54.636Z,99120.02
2017-10-19T11:03:21.568Z,99099.67
2017-10-19T11:05:48.116Z,99106.84
2017-10-19T11:08:14.559Z,99110.20
2017-10-19T11:10:40.982Z,99116.92
2017-10-19T11:13:07.521Z,99107.02
2017-10-19T11:15:33.971Z,99104.86
2017-10-19T11:18:02.028Z,99095.68
2017-10-19T11:20:32.085Z,99105.12
2017-10-19T11:22:58.585Z,99100.64
2017-10-19T11:25:25.027Z,99090.50
2017-10-19T11:27:51.491Z,99092.36
2017-10-19T11:30:18.193Z,99089.39
2017-10-19T11:32:44.571Z,99099.83
2017-10-19T11:35:11.827Z,99099.66
2017-10-19T11:37:38.942Z,99085.17
2017-10-19T11:40:05.990Z,99097.21
2017-10-19T11:42:32.416Z,99093.81
2017-10-19T11:44:58.786Z,99085.80
2017-10-19T11:47:25.490Z,99086.64
2017-10-19T11:49:52.036Z,99090.77
2017-10-19T11:52:18.565Z,99085.83
2017-10-19T11:54:45.111Z,99093.66
2017-10-19T11:57:11.607Z,99089.78
2017-10-19T11:59:38.082Z,99087.31
2017-10-19T12:02:04.619Z,99091.91
2017-10-19T12:04:31.662Z,99090.42
2017-10-19T12:06:58.197Z,99086.48
2017-10-19T12:09:24.735Z,99081.97
2017-10-19T12:11:51.451Z,99079.59
2017-10-19T12:14:18.022Z,99082.34
2017-10-19T12:16:44.407Z,99076.36
2017-10-19T12:19:11.162Z,99079.69
2017-10-19T12:21:37.626Z,99078.22
2017-10-19T12:24:04.163Z,99078.70
2017-10-19T12:26:31.366Z,99079.63
2017-10-19T12:28:57.756Z,99079.16
2017-10-19T12:31:24.223Z,99082.47
2017-10-19T12:33:50.810Z,99078.29
2017-10-19T12:36:17.257Z,99079.66
2017-10-19T12:38:43.693Z,99076.59
2017-10-19T12:41:10.333Z,99079.78
2017-10-19T12:43:36.878Z,99073.71
2017-10-19T12:46:03.309Z,99072.33
2017-10-19T12:48:29.742Z,99072.72
2017-10-19T12:50:56.175Z,99054.92
2017-10-19T12:53:22.947Z,99063.16
2017-10-19T12:55:49.393Z,99060.87
2017-10-19T12:58:16.048Z,99069.18
2017-10-19T13:00:42.816Z,99064.70
2017-10-19T13:03:09.550Z,99069.34
2017-10-19T13:05:36.000Z,99069.45
2017-10-19T13:08:02.419Z,99063.80
2017-10-19T13:10:29.394Z,99061.44
2017-10-19T13:12:55.952Z,99071.34
2017-10-19T13:15:22.674Z,99066.91
2017-10-19T13:17:49.110Z,99067.86
2017-10-19T13:20:15.542Z,99069.75
2017-10-19T13:22:42.910Z,99058.84
2017-10-19T13:25:09.334Z,99069.59
2017-10-19T13:27:35.769Z,99066.95
2017-10-19T13:30:03.031Z,99060.80
2017-10-19T13:32:29.497Z,99065.52
2017-10-19T13:34:56.061Z,99069.36
2017-10-19T13:37:22.533Z,99065.45
2017-10-19T13:39:48.967Z,99062.95
2017-10-19T13:42:15.338Z,99065.63
2017-10-19T13:44:42.043Z,99059.81
2017-10-19T13:47:08.477Z,99057.38
2017-10-19T13:49:35.022Z,99063.34
2017-10-19T13:52:01.416Z,99046.94
2017-10-19T13:54:27.995Z,99060.72
2017-10-19T13:56:54.738Z,99060.40
2017-10-19T13:59:21.171Z,99056.63
2017-10-19T14:01:47.692Z,99060.38
2017-10-19T14:04:14.554Z,99059.12
2017-10-19T14:06:41.975Z,99056.87
2017-10-19T14:09:09.865Z,99055.95
2017-10-19T14:11:37.835Z,99060.36
2017-10-19T14:14:04.453Z,99065.13
2017-10-19T14:16:31.429Z,99064.38
2017-10-19T14:18:57.838Z,99061.12
2017-10-19T14:21:24.198Z,99061.64
2017-10-19T14:23:51.134Z,99067.52
2017-10-19T14:26:17.578Z,99066.72
2017-10-19T14:28:44.013Z,99067.96
2017-10-19T14:31:11.727Z,99074.73
2017-10-19T14:33:38.422Z,99070.59
2017-10-19T14:36:04.920Z,99065.27
2017-10-19T14:38:31.390Z,99068.58
2017-10-19T14:40:57.931Z,99075.19
2017-10-19T14:43:24.691Z,99076.97
2017-10-19T14:45:51.134Z,99074.21
2017-10-19T14:48:17.996Z,99073.72
2017-10-19T14:50:44.345Z,99072.92
2017-10-19T14:53:10.827Z,99072.94
2017-10-19T14:55:37.364Z,99073.11
2017-10-19T14:58:03.792Z,99068.30
2017-10-19T15:00:30.229Z,99071.64
2017-10-19T15:02:57.150Z,99071.88
2017-10-19T15:05:23.716Z,99068.71
2017-10-19T15:07:50.043Z,99072.81
2017-10-19T15:10:16.566Z,99074.32
2017-10-19T15:12:43.015Z,99074.64
2017-10-19T15:15:09.551Z,99081.15
2017-10-19T15:17:35.985Z,99082.72
2017-10-19T15:20:03.375Z,99078.50
2017-10-19T15:22:30.288Z,99085.28
2017-10-19T15:24:56.623Z,99091.57
2017-10-19T15:27:23.139Z,99086.84
2017-10-19T15:29:49.901Z,99071.58
2017-10-19T15:32:16.338Z,99087.37
2017-10-19T15:34:45.443Z,99088.86
2017-10-19T15:37:12.228Z,99090.02
2017-10-19T15:39:38.840Z,99089.41
2017-10-19T15:42:07.587Z,99089.46
2017-10-19T15:44:34.552Z,99096.88
2017-10-19T15:47:00.988Z,99100.35
2017-10-19T15:49:27.453Z,99096.47
2017-10-19T15:51:53.865Z,99091.20
2017-10-19T15:54:20.300Z,99076.09
2017-10-19T15:56:47.042Z,99089.81
2017-10-19T15:59:13.477Z,99091.13
2017-10-19T16:01:39.903Z,99092.53
2017-10-19T16:04:06.346Z,99094.23
2017-10-19T16:06:48.008Z,99094.55
2017-10-19T16:09:16.207Z,99091.80
2017-10-19T16:11:42.642Z,99096.58
2017-10-19T16:14:09.046Z,99089.58
2017-10-19T16:16:35.453Z,99087.25
2017-10-19T16:19:01.869Z,99090.96
2017-10-19T16:21:28.282Z,99094.00
2017-10-19T16:23:54.775Z,99095.03
2017-10-19T16:26:21.260Z,99090.34
2017-10-19T16:28:47.687Z,99096.86
2017-10-19T16:31:14.089Z,99099.82
2017-10-19T16:33:40.657Z,99100.23
2017-10-19T16:36:07.311Z,99075.76
2017-10-19T16:38:34.561Z,99103.77
2017-10-19T16:41:01.089Z,99102.16
2017-10-19T16:43:27.634Z,99100.67
2017-10-19T16:45:54.164Z,99099.81
2017-10-19T16:48:20.699Z,99079.45
2017-10-19T16:50:47.237Z,99106.48
2017-10-19T16:53:14.184Z,99105.58
2017-10-19T16:55:41.028Z,99108.28
2017-10-19T16:58:07.584Z,99110.40
2017-10-19T17:00:34.205Z,99108.14
2017-10-19T17:03:00.640Z,99118.31
2017-10-19T17:05:27.075Z,99112.73
2017-10-19T17:07:53.928Z,99105.40
2017-10-19T17:10:20.766Z,99112.30
2017-10-19T17:12:47.738Z,99108.02
2017-10-19T17:15:14.248Z,99110.75
2017-10-19T17:17:40.931Z,99108.03
2017-10-19T17:20:07.603Z,99107.34
2017-10-19T17:22:34.329Z,99114.33
2017-10-19T17:25:00.988Z,99119.36
2017-10-19T17:27:27.547Z,99119.26
2017-10-19T17:29:54.598Z,99112.19
2017-10-19T17:32:21.155Z,99110.22
2017-10-19T17:34:47.569Z,99108.45
2017-10-19T17:37:14.257Z,99107.73
2017-10-19T17:39:40.885Z,99113.02
2017-10-19T17:42:07.362Z,99106.72
2017-10-19T17:44:34.239Z,99098.78
2017-10-19T17:47:01.225Z,99118.36
2017-10-19T17:49:27.611Z,99117.27
2017-10-19T17:51:53.982Z,99117.77
2017-10-19T17:54:20.519Z,99119.58
2017-10-19T17:56:46.916Z,99115.77
2017-10-19T17:59:13.351Z,99117.27
2017-10-19T18:01:39.788Z,99122.86
2017-10-19T18:04:06.938Z,99121.28
2017-10-19T18:06:33.373Z,99121.81
2017-10-19T18:08:59.815Z,99111.38
2017-10-19T18:11:26.211Z,99116.67
2017-10-19T18:13:52.692Z,99112.02
2017-10-19T18:16:19.119Z,99115.28
2017-10-19T18:18:45.525Z,99119.64
2017-10-19T18:21:12.810Z,99117.72
2017-10-19T18:23:39.255Z,99120.16
2017-10-19T18:26:05.671Z,99126.78
2017-10-19T18:28:32.617Z,99128.30
2017-10-19T18:30:59.028Z,99126.14
2017-10-19T18:33:25.487Z,99126.91
2017-10-19T18:35:51.893Z,99127.37
2017-10-19T18:38:19.078Z,99131.24
2017-10-19T18:40:45.509Z,99129.31
2017-10-19T18:43:11.943Z,99130.07
2017-10-19T18:45:38.399Z,99130.78
2017-10-19T18:48:04.760Z,99132.68
2017-10-19T18:50:31.259Z,99134.65
2017-10-19T18:52:57.702Z,99136.10
2017-10-19T18:55:24.834Z,99120.86
2017-10-19T18:57:51.203Z,99138.51
2017-10-19T19:00:17.704Z,99139.12
2017-10-19T19:02:44.138Z,99132.31
2017-10-19T19:05:10.581Z,99132.55
2017-10-19T19:07:37.120Z,99140.23
2017-10-19T19:10:03.546Z,99140.23
2017-10-19T19:12:30.706Z,99147.27
2017-10-19T19:14:57.234Z,99147.68
2017-10-19T19:17:23.678Z,99144.05
2017-10-19T19:19:50.041Z,99145.64
2017-10-19T19:22:16.547Z,99139.59
2017-10-19T19:24:42.911Z,99154.55
2017-10-19T19:27:09.399Z,99151.66
2017-10-19T19:29:36.671Z,99149.60
2017-10-19T19:32:03.098Z,99145.17
2017-10-19T19:34:29.542Z,99150.67
2017-10-19T19:36:55.970Z,99153.13
2017-10-19T19:39:22.410Z,99156.09
2017-10-19T19:41:48.776Z,99159.49
2017-10-19T19:44:15.114Z,99152.20
2017-10-19T19:46:42.452Z,99148.54
2017-10-19T19:49:08.800Z,99153.25
2017-10-19T19:51:35.153Z,99141.50
2017-10-19T19:54:01.633Z,99155.39
2017-10-19T19:56:28.068Z,99154.03
2017-10-19T19:58:54.516Z,99159.97
2017-10-19T20:01:20.937Z,99162.20
2017-10-19T20:03:48.183Z,99158.66
2017-10-19T20:06:14.619Z,99160.56
2017-10-19T20:08:41.062Z,99156.31
2017-10-19T20:11:07.488Z,99153.66
2017-10-19T20:13:34.128Z,99152.15
2017-10-19T20:16:00.563Z,99153.08
2017-10-19T20:18:26.998Z,99154.19
2017-10-19T20:20:54.227Z,99157.53
2017-10-19T20:23:22.766Z,99156.18
2017-10-19T20:25:49.280Z,99150.98
2017-10-19T20:28:15.715Z,99150.69
2017-10-19T20:30:42.142Z,99155.13
2017-10-19T20:33:08.518Z,99150.41
2017-10-19T20:35:34.910Z,99157.42
2017-10-19T20:38:01.316Z,99147.69
2017-10-19T20:40:27.941Z,99153.58
2017-10-19T20:42:54.315Z,99152.80
2017-10-19T20:45:20.759Z,99149.02
2017-10-19T20:47:47.129Z,99154.19
2017-10-19T20:50:13.518Z,99155.78
2017-10-19T20:52:39.889Z,99154.53
2017-10-19T20:55:06.396Z,99154.50
2017-10-19T20:57:32.822Z,99157.44
2017-10-19T20:59:59.260Z,99152.25
2017-10-19T21:02:25.693Z,99151.97
2017-10-19T21:04:52.173Z,99153.05
2017-10-19T21:07:18.561Z,99148.05
2017-10-19T21:09:44.996Z,99148.09
2017-10-19T21:12:12.253Z,99148.08
2017-10-19T21:14:38.688Z,99149.34
2017-10-19T21:17:05.124Z,99134.75
2017-10-19T21:19:31.571Z,99146.17
2017-10-19T21:21:58.100Z,99135.46
2017-10-19T21:24:24.426Z,99155.87
2017-10-19T21:26:50.859Z,99141.06
2017-10-19T21:29:18.011Z,99145.98
2017-10-19T21:31:44.446Z,99148.97
2017-10-19T21:34:10.889Z,99136.38
2017-10-19T21:36:37.324Z,99147.83
2017-10-19T21:39:03.651Z,99141.72
2017-10-19T21:41:30.108Z,99145.49
2017-10-19T21:43:56.517Z,99136.12
2017-10-19T21:46:23.776Z,99139.33
2017-10-19T21:48:50.214Z,99140.88
2017-10-19T21:51:16.634Z,99142.02
2017-10-19T21:53:43.066Z,99135.22
2017-10-19T21:56:09.449Z,99140.64
2017-10-19T21:58:35.800Z,99141.88
2017-10-19T22:01:02.283Z,99126.74
2017-10-19T22:03:29.540Z,99147.85
2017-10-19T22:05:56.078Z,99148.88
2017-10-19T22:08:22.401Z,99145.89
2017-10-19T22:10:48.836Z,99148.14
2017-10-19T22:13:15.272Z,99145.85
2017-10-19T22:15:41.706Z,99157.55
2017-10-19T22:18:08.154Z,99157.10
2017-10-19T22:20:35.382Z,99158.50
2017-10-19T22:23:01.829Z,99162.95
2017-10-19T22:25:28.264Z,99153.55
2017-10-19T22:27:54.677Z,99149.44
2017-10-19T22:30:21.135Z,99148.95
2017-10-19T22:32:47.568Z,99157.42
2017-10-19T22:35:14.012Z,99158.31
2017-10-19T22:37:40.446Z,99154.52
2017-10-19T22:40:06.881Z,99162.98
2017-10-19T22:42:33.316Z,99163.72
2017-10-19T22:45:00.580Z,99164.91
2017-10-19T22:47:26.998Z,99170.95
2017-10-19T22:49:53.439Z,99170.34
2017-10-19T22:52:19.866Z,99179.51
2017-10-19T22:54:46.271Z,99171.52
2017-10-19T22:57:12.735Z,99165.75
2017-10-19T22:59:39.108Z,99167.44
2017-10-19T23:02:06.429Z,99168.16
2017-10-19T23:04:32.859Z,99169.09
2017-10-19T23:06:59.296Z,99171.87
2017-10-19T23:09:25.699Z,99169.66
2017-10-19T23:11:52.047Z,99172.77
2017-10-19T23:14:18.505Z,99163.60
2017-10-19T23:16:44.949Z,99167.23
2017-10-19T23:19:12.091Z,99168.77
2017-10-19T23:21:38.526Z,99170.91
2017-10-19T23:24:04.953Z,99169.78
2017-10-19T23:26:31.285Z,99169.85
2017-10-19T23:28:57.728Z,99172.27
2017-10-19T23:31:24.155Z,99145.16
2017-10-19T23:33:50.590Z,99170.45
2017-10-19T23:36:17.761Z,99166.56
2017-10-19T23:38:44.139Z,99165.23
2017-10-19T23:41:10.508Z,99171.73
2017-10-19T23:43:36.878Z,99171.42
2017-10-19T23:46:03.241Z,99171.05
2017-10-19T23:48:29.710Z,99162.72
2017-10-19T23:50:56.078Z,99175.44
2017-10-19T23:53:23.398Z,99176.52
2017-10-19T23:55:49.835Z,99179.71
2017-10-19T23:58:16.220Z,99177.86
